PWSweather.com
Personal Weather Stations
Station Observations
WAREHAM1
West Wareham, MA 02576

West Wareham, MA 02576

Lat: 41.7961059, Lon: -70.775612

Elevation: 88

Station Type: Davis Vantage Vue

http://www.gateway2capecod.com

Latest ConditionsUpdated 6:03:51 PM EST Thursday, Feb 11, 2016
Currently Today's Max Today's Min Today's Average
Temperature 20.8°F-6.2°C 29.5°F-1.4°C 20.8°F-6.2°C 25.7°F-3.5°C
Dew Point 4.3°F-15.4°C 28.4°F-2.0°C 3.2°F-16.0°C 17.4°F-8.1°C
Winds 4.0 mph WSW6.4 kmh WSW 4.9 mph W7.9 kmh W - 1.6 mph 2.6 kmh
Wind Gusts 13.0 mph20.9 kmh 21.0 mph33.8 kmh - -
Humidity 48% 96% 38% 73%
Pressure 29.87 in1011.5 mb 29.87 in1011.5 mb 29.67 in1004.7 mb -
Hour Temp Dew Point Humidity Winds Wind Gusts Pressure Precip Precip Rate Daily Precip Total
06:03 PM 20.8°F-6.2°C 4.3°F-15.4°C 48% 4.0 mph WSW6.4 kmh WSW 13.0 mph20.9 kmh 29.87 in1011.5 mb 0.00 in0.0 mm 0.00 in0.0 mm 0.00 in0.0 mm
05:53 PM 20.8°F-6.2°C 4.3°F-15.4°C 48% 2.0 mph WSW3.2 kmh WSW 8.9 mph14.3 kmh 29.86 in1011.2 mb 0.00 in0.0 mm 0.00 in0.0 mm 0.00 in0.0 mm
05:43 PM 21.4°F-5.9°C 3.7°F-15.7°C 46% 2.9 mph W4.7 kmh W 16.1 mph25.9 kmh 29.85 in1010.8 mb 0.00 in0.0 mm 0.00 in0.0 mm 0.00 in0.0 mm
05:33 PM 21.6°F-5.8°C 3.6°F-15.8°C 45% 4.9 mph SW7.9 kmh SW 16.1 mph25.9 kmh 29.85 in1010.8 mb 0.00 in0.0 mm 0.00 in0.0 mm 0.00 in0.0 mm
05:23 PM 21.9°F-5.6°C 3.4°F-15.9°C 44% 4.0 mph W6.4 kmh W 10.1 mph16.3 kmh 29.84 in1010.5 mb 0.00 in0.0 mm 0.00 in0.0 mm 0.00 in0.0 mm
05:13 PM 22.3°F-5.4°C 3.2°F-16.0°C 43% 4.9 mph WSW7.9 kmh WSW 21.0 mph33.8 kmh 29.83 in1010.2 mb 0.00 in0.0 mm 0.00 in0.0 mm 0.00 in0.0 mm
05:03 PM 22.8°F-5.1°C 3.2°F-16.0°C 42% 4.0 mph W6.4 kmh W 13.0 mph20.9 kmh 29.83 in1010.2 mb 0.00 in0.0 mm 0.00 in0.0 mm 0.00 in0.0 mm
04:53 PM 23.5°F-4.7°C 3.7°F-15.7°C 42% 4.0 mph WSW6.4 kmh WSW 12.1 mph19.5 kmh 29.82 in1009.8 mb 0.00 in0.0 mm 0.00 in0.0 mm 0.00 in0.0 mm
04:43 PM 23.9°F-4.5°C 4.6°F-15.2°C 43% 4.0 mph W6.4 kmh W 10.1 mph16.3 kmh 29.81 in1009.5 mb 0.00 in0.0 mm 0.00 in0.0 mm 0.00 in0.0 mm
04:33 PM 24.4°F-4.2°C 5.7°F-14.6°C 44% 2.9 mph WNW4.7 kmh WNW 8.9 mph14.3 kmh 29.80 in1009.1 mb 0.00 in0.0 mm 0.00 in0.0 mm 0.00 in0.0 mm
04:23 PM 25.2°F-3.8°C 5.4°F-14.8°C 42% 4.0 mph W6.4 kmh W 12.1 mph19.5 kmh 29.80 in1009.1 mb 0.00 in0.0 mm 0.00 in0.0 mm 0.00 in0.0 mm
04:13 PM 25.3°F-3.7°C 5.4°F-14.8°C 42% 2.9 mph SW4.7 kmh SW 13.0 mph20.9 kmh 29.79 in1008.8 mb 0.00 in0.0 mm 0.00 in0.0 mm 0.00 in0.0 mm
04:03 PM 25.5°F-3.6°C 6.6°F-14.1°C 44% 2.0 mph SW3.2 kmh SW 14.0 mph22.5 kmh 29.79 in1008.8 mb 0.00 in0.0 mm 0.00 in0.0 mm 0.00 in0.0 mm
03:53 PM 25.9°F-3.4°C 5.4°F-14.8°C 41% 4.0 mph WSW6.4 kmh WSW 12.1 mph19.5 kmh 29.78 in1008.5 mb 0.00 in0.0 mm 0.00 in0.0 mm 0.00 in0.0 mm
03:43 PM 26.2°F-3.2°C 4.1°F-15.5°C 38% 2.9 mph W4.7 kmh W 12.0 mph19.3 kmh 29.77 in1008.1 mb 0.00 in0.0 mm 0.00 in0.0 mm 0.00 in0.0 mm
03:33 PM 25.9°F-3.4°C 4.8°F-15.1°C 40% 4.0 mph SW6.4 kmh SW 12.1 mph19.5 kmh 29.77 in1008.1 mb 0.00 in0.0 mm 0.00 in0.0 mm 0.00 in0.0 mm
03:23 PM 26.1°F-3.3°C 6.6°F-14.1°C 43% 4.9 mph W7.9 kmh W 13.0 mph20.9 kmh 29.77 in1008.1 mb 0.00 in0.0 mm 0.00 in0.0 mm 0.00 in0.0 mm
03:13 PM 27.0°F-2.8°C 7.5°F-13.6°C 43% 2.9 mph W4.7 kmh W 10.1 mph16.3 kmh 29.77 in1008.1 mb 0.00 in0.0 mm 0.00 in0.0 mm 0.00 in0.0 mm
03:03 PM 26.8°F-2.9°C 7.3°F-13.7°C 43% 4.9 mph W7.9 kmh W 12.1 mph19.5 kmh 29.76 in1007.8 mb 0.00 in0.0 mm 0.00 in0.0 mm 0.00 in0.0 mm
02:53 PM 27.3°F-2.6°C 9.7°F-12.4°C 47% 4.0 mph WNW6.4 kmh WNW 13.0 mph20.9 kmh 29.75 in1007.5 mb 0.00 in0.0 mm 0.00 in0.0 mm 0.00 in0.0 mm
02:43 PM 27.3°F-2.6°C 9.7°F-12.4°C 47% 4.0 mph SW6.4 kmh SW 12.0 mph19.3 kmh 29.75 in1007.5 mb 0.00 in0.0 mm 0.00 in0.0 mm 0.00 in0.0 mm
02:33 PM 27.3°F-2.6°C 9.3°F-12.6°C 46% 4.0 mph S6.4 kmh S 12.1 mph19.5 kmh 29.75 in1007.5 mb 0.00 in0.0 mm 0.00 in0.0 mm 0.00 in0.0 mm
02:23 PM 27.1°F-2.7°C 10.6°F-11.9°C 49% 2.9 mph W4.7 kmh W 11.0 mph17.7 kmh 29.74 in1007.1 mb 0.00 in0.0 mm 0.00 in0.0 mm 0.00 in0.0 mm
02:13 PM 27.0°F-2.8°C 10.4°F-12.0°C 49% 4.9 mph WNW7.9 kmh WNW 12.1 mph19.5 kmh 29.74 in1007.1 mb 0.00 in0.0 mm 0.00 in0.0 mm 0.00 in0.0 mm
02:03 PM 27.3°F-2.6°C 12.4°F-10.9°C 53% 4.0 mph SW6.4 kmh SW 11.0 mph17.7 kmh 29.74 in1007.1 mb 0.00 in0.0 mm 0.00 in0.0 mm 0.00 in0.0 mm
01:53 PM 26.6°F-3.0°C 12.6°F-10.8°C 55% 4.0 mph WNW6.4 kmh WNW 13.0 mph20.9 kmh 29.74 in1007.1 mb 0.00 in0.0 mm 0.00 in0.0 mm 0.00 in0.0 mm
01:43 PM 26.8°F-2.9°C 13.6°F-10.2°C 57% 2.9 mph SW4.7 kmh SW 12.1 mph19.5 kmh 29.73 in1006.8 mb 0.00 in0.0 mm 0.00 in0.0 mm 0.00 in0.0 mm
01:33 PM 27.1°F-2.7°C 14.7°F-9.6°C 59% 2.9 mph SSW4.7 kmh SSW 13.0 mph20.9 kmh 29.73 in1006.8 mb 0.00 in0.0 mm 0.00 in0.0 mm 0.00 in0.0 mm
01:23 PM 28.0°F-2.2°C 15.3°F-9.3°C 58% 2.9 mph NW4.7 kmh NW 11.0 mph17.7 kmh 29.72 in1006.4 mb 0.00 in0.0 mm 0.00 in0.0 mm 0.00 in0.0 mm
01:13 PM 28.0°F-2.2°C 14.7°F-9.6°C 57% 2.9 mph SW4.7 kmh SW 12.1 mph19.5 kmh 29.72 in1006.4 mb 0.00 in0.0 mm 0.00 in0.0 mm 0.00 in0.0 mm
01:03 PM 28.0°F-2.2°C 14.7°F-9.6°C 57% 4.0 mph N6.4 kmh N 11.0 mph17.7 kmh 29.73 in1006.8 mb 0.00 in0.0 mm 0.00 in0.0 mm 0.00 in0.0 mm
12:53 PM 28.2°F-2.1°C 16.2°F-8.8°C 60% 2.9 mph WNW4.7 kmh WNW 11.0 mph17.7 kmh 29.73 in1006.8 mb 0.00 in0.0 mm 0.00 in0.0 mm 0.00 in0.0 mm
12:43 PM 27.7°F-2.4°C 16.3°F-8.7°C 62% 4.0 mph S6.4 kmh S 12.1 mph19.5 kmh 29.73 in1006.8 mb 0.00 in0.0 mm 0.00 in0.0 mm 0.00 in0.0 mm
12:33 PM 27.7°F-2.4°C 16.0°F-8.9°C 61% 2.9 mph WSW4.7 kmh WSW 10.1 mph16.3 kmh 29.73 in1006.8 mb 0.00 in0.0 mm 0.00 in0.0 mm 0.00 in0.0 mm
12:23 PM 28.0°F-2.2°C 16.7°F-8.5°C 62% 2.9 mph ESE4.7 kmh ESE 9.0 mph14.5 kmh 29.73 in1006.8 mb 0.00 in0.0 mm 0.00 in0.0 mm 0.00 in0.0 mm
12:13 PM 28.4°F-2.0°C 17.1°F-8.3°C 62% 2.0 mph SSW3.2 kmh SSW 8.1 mph13.0 kmh 29.73 in1006.8 mb 0.00 in0.0 mm 0.00 in0.0 mm 0.00 in0.0 mm
12:03 PM 28.6°F-1.9°C 18.0°F-7.8°C 64% 2.0 mph W3.2 kmh W 9.0 mph14.5 kmh 29.74 in1007.1 mb 0.00 in0.0 mm 0.00 in0.0 mm 0.00 in0.0 mm
11:53 AM 28.8°F-1.8°C 19.6°F-6.9°C 68% 2.0 mph SSW3.2 kmh SSW 7.0 mph11.3 kmh 29.74 in1007.1 mb 0.00 in0.0 mm 0.00 in0.0 mm 0.00 in0.0 mm
11:43 AM 28.0°F-2.2°C 21.2°F-6.0°C 75% 2.0 mph WSW3.2 kmh WSW 9.0 mph14.5 kmh 29.74 in1007.1 mb 0.00 in0.0 mm 0.00 in0.0 mm 0.00 in0.0 mm
11:33 AM 27.9°F-2.3°C 21.6°F-5.8°C 77% 2.0 mph SW3.2 kmh SW 6.0 mph9.7 kmh 29.74 in1007.1 mb 0.00 in0.0 mm 0.00 in0.0 mm 0.00 in0.0 mm
11:23 AM 27.5°F-2.5°C 21.2°F-6.0°C 77% 2.0 mph NW3.2 kmh NW 6.9 mph11.1 kmh 29.74 in1007.1 mb 0.00 in0.0 mm 0.00 in0.0 mm 0.00 in0.0 mm
11:13 AM 27.3°F-2.6°C 21.9°F-5.6°C 80% 0.9 mph WNW1.4 kmh WNW 10.0 mph16.1 kmh 29.74 in1007.1 mb 0.00 in0.0 mm 0.00 in0.0 mm 0.00 in0.0 mm
11:03 AM 27.0°F-2.8°C 22.5°F-5.3°C 83% 2.0 mph WSW3.2 kmh WSW 6.9 mph11.1 kmh 29.74 in1007.1 mb 0.00 in0.0 mm 0.00 in0.0 mm 0.00 in0.0 mm
10:53 AM 26.4°F-3.1°C 21.9°F-5.6°C 83% 2.0 mph SW3.2 kmh SW 8.1 mph13.0 kmh 29.75 in1007.5 mb 0.00 in0.0 mm 0.00 in0.0 mm 0.00 in0.0 mm
10:43 AM 26.4°F-3.1°C 21.9°F-5.6°C 83% 2.0 mph WNW3.2 kmh WNW 8.1 mph13.0 kmh 29.75 in1007.5 mb 0.00 in0.0 mm 0.00 in0.0 mm 0.00 in0.0 mm
10:33 AM 26.4°F-3.1°C 21.4°F-5.9°C 81% 2.0 mph WSW3.2 kmh WSW 8.1 mph13.0 kmh 29.75 in1007.5 mb 0.00 in0.0 mm 0.00 in0.0 mm 0.00 in0.0 mm
10:23 AM 26.8°F-2.9°C 21.2°F-6.0°C 79% 2.9 mph W4.7 kmh W 10.0 mph16.1 kmh 29.75 in1007.5 mb 0.00 in0.0 mm 0.00 in0.0 mm 0.00 in0.0 mm
10:13 AM 27.1°F-2.7°C 21.7°F-5.7°C 80% 2.0 mph WNW3.2 kmh WNW 8.1 mph13.0 kmh 29.75 in1007.5 mb 0.00 in0.0 mm 0.00 in0.0 mm 0.00 in0.0 mm
10:03 AM 27.0°F-2.8°C 21.0°F-6.1°C 78% 2.9 mph N4.7 kmh N 8.9 mph14.3 kmh 29.74 in1007.1 mb 0.00 in0.0 mm 0.00 in0.0 mm 0.00 in0.0 mm
09:53 AM 27.1°F-2.7°C 20.7°F-6.3°C 76% 2.0 mph SW3.2 kmh SW 11.0 mph17.7 kmh 29.74 in1007.1 mb 0.00 in0.0 mm 0.00 in0.0 mm 0.00 in0.0 mm
09:43 AM 27.5°F-2.5°C 21.0°F-6.1°C 76% 2.0 mph WSW3.2 kmh WSW 9.0 mph14.5 kmh 29.75 in1007.5 mb 0.00 in0.0 mm 0.00 in0.0 mm 0.00 in0.0 mm
09:33 AM 27.5°F-2.5°C 20.3°F-6.5°C 74% 2.0 mph SW3.2 kmh SW 8.1 mph13.0 kmh 29.74 in1007.1 mb 0.00 in0.0 mm 0.00 in0.0 mm 0.00 in0.0 mm
09:23 AM 27.7°F-2.4°C 19.8°F-6.8°C 72% 2.9 mph WSW4.7 kmh WSW 8.0 mph12.9 kmh 29.74 in1007.1 mb 0.00 in0.0 mm 0.00 in0.0 mm 0.00 in0.0 mm
09:13 AM 28.0°F-2.2°C 19.9°F-6.7°C 71% 2.0 mph SW3.2 kmh SW 6.0 mph9.7 kmh 29.74 in1007.1 mb 0.00 in0.0 mm 0.00 in0.0 mm 0.00 in0.0 mm
09:03 AM 28.0°F-2.2°C 20.1°F-6.6°C 72% 2.0 mph WNW3.2 kmh WNW 8.1 mph13.0 kmh 29.73 in1006.8 mb 0.00 in0.0 mm 0.00 in0.0 mm 0.00 in0.0 mm
08:53 AM 27.3°F-2.6°C 19.8°F-6.8°C 73% 2.0 mph SSW3.2 kmh SSW 5.0 mph8.0 kmh 29.73 in1006.8 mb 0.00 in0.0 mm 0.00 in0.0 mm 0.00 in0.0 mm
08:43 AM 27.0°F-2.8°C 19.8°F-6.8°C 74% 2.0 mph W3.2 kmh W 8.1 mph13.0 kmh 29.73 in1006.8 mb 0.00 in0.0 mm 0.00 in0.0 mm 0.00 in0.0 mm
08:33 AM 26.4°F-3.1°C 19.2°F-7.1°C 74% 2.0 mph WSW3.2 kmh WSW 7.0 mph11.3 kmh 29.72 in1006.4 mb 0.00 in0.0 mm 0.00 in0.0 mm 0.00 in0.0 mm
08:23 AM 26.2°F-3.2°C 19.4°F-7.0°C 75% 0.9 mph W1.4 kmh W 7.0 mph11.3 kmh 29.72 in1006.4 mb 0.00 in0.0 mm 0.00 in0.0 mm 0.00 in0.0 mm
08:13 AM 26.1°F-3.3°C 19.6°F-6.9°C 76% 2.0 mph W3.2 kmh W 6.0 mph9.7 kmh 29.72 in1006.4 mb 0.00 in0.0 mm 0.00 in0.0 mm 0.00 in0.0 mm
08:03 AM 26.1°F-3.3°C 19.8°F-6.8°C 77% 0.9 mph WSW1.4 kmh WSW 6.0 mph9.7 kmh 29.72 in1006.4 mb 0.00 in0.0 mm 0.00 in0.0 mm 0.00 in0.0 mm
07:53 AM 25.9°F-3.4°C 19.9°F-6.7°C 78% 0.9 mph SW1.4 kmh SW 6.0 mph9.7 kmh 29.72 in1006.4 mb 0.00 in0.0 mm 0.00 in0.0 mm 0.00 in0.0 mm
07:43 AM 25.2°F-3.8°C 20.5°F-6.4°C 82% Calm Calm 4.0 mph6.4 kmh 29.71 in1006.1 mb 0.00 in0.0 mm 0.00 in0.0 mm 0.00 in0.0 mm
07:33 AM 24.1°F-4.4°C 20.5°F-6.4°C 86% Calm Calm 2.9 mph4.7 kmh 29.71 in1006.1 mb 0.00 in0.0 mm 0.00 in0.0 mm 0.00 in0.0 mm
07:23 AM 22.6°F-5.2°C 19.9°F-6.7°C 89% Calm Calm 2.0 mph3.2 kmh 29.71 in1006.1 mb 0.00 in0.0 mm 0.00 in0.0 mm 0.00 in0.0 mm
07:13 AM 21.6°F-5.8°C 19.0°F-7.2°C 90% Calm Calm 2.0 mph3.2 kmh 29.71 in1006.1 mb 0.00 in0.0 mm 0.00 in0.0 mm 0.00 in0.0 mm
07:03 AM 21.2°F-6.0°C 18.7°F-7.4°C 90% Calm Calm -- 29.71 in1006.1 mb 0.00 in0.0 mm 0.00 in0.0 mm 0.00 in0.0 mm
06:53 AM 21.0°F-6.1°C 18.3°F-7.6°C 89% Calm Calm -- 29.71 in1006.1 mb 0.00 in0.0 mm 0.00 in0.0 mm 0.00 in0.0 mm
06:43 AM 21.4°F-5.9°C 18.3°F-7.6°C 88% Calm Calm -- 29.71 in1006.1 mb 0.00 in0.0 mm 0.00 in0.0 mm 0.00 in0.0 mm
06:33 AM 21.6°F-5.8°C 18.3°F-7.6°C 87% Calm Calm -- 29.71 in1006.1 mb 0.00 in0.0 mm 0.00 in0.0 mm 0.00 in0.0 mm
06:23 AM 22.1°F-5.5°C 18.9°F-7.3°C 87% Calm Calm 1.0 mph1.6 kmh 29.70 in1005.8 mb 0.00 in0.0 mm 0.00 in0.0 mm 0.00 in0.0 mm
06:13 AM 22.3°F-5.4°C 18.7°F-7.4°C 86% Calm Calm 0.9 mph1.4 kmh 29.70 in1005.8 mb 0.00 in0.0 mm 0.00 in0.0 mm 0.00 in0.0 mm
06:03 AM 23.0°F-5.0°C 18.9°F-7.3°C 84% Calm Calm 0.9 mph1.4 kmh 29.70 in1005.8 mb 0.00 in0.0 mm 0.00 in0.0 mm 0.00 in0.0 mm
05:53 AM 23.5°F-4.7°C 19.4°F-7.0°C 84% Calm Calm 2.0 mph3.2 kmh 29.70 in1005.8 mb 0.00 in0.0 mm 0.00 in0.0 mm 0.00 in0.0 mm
05:43 AM 23.5°F-4.7°C 19.8°F-6.8°C 85% Calm Calm 0.9 mph1.4 kmh 29.70 in1005.8 mb 0.00 in0.0 mm 0.00 in0.0 mm 0.00 in0.0 mm
05:33 AM 23.5°F-4.7°C 19.8°F-6.8°C 85% Calm Calm 0.9 mph1.4 kmh 29.69 in1005.4 mb 0.00 in0.0 mm 0.00 in0.0 mm 0.00 in0.0 mm
05:23 AM 23.7°F-4.6°C 19.9°F-6.7°C 85% Calm Calm 1.0 mph1.6 kmh 29.69 in1005.4 mb 0.00 in0.0 mm 0.00 in0.0 mm 0.00 in0.0 mm
05:13 AM 24.3°F-4.3°C 20.5°F-6.4°C 85% Calm Calm -- 29.68 in1005.1 mb 0.00 in0.0 mm 0.00 in0.0 mm 0.00 in0.0 mm
05:03 AM 24.4°F-4.2°C 20.7°F-6.3°C 85% Calm Calm 0.9 mph1.4 kmh 29.68 in1005.1 mb 0.00 in0.0 mm 0.00 in0.0 mm 0.00 in0.0 mm
04:53 AM 24.3°F-4.3°C 20.7°F-6.3°C 86% Calm Calm 0.9 mph1.4 kmh 29.68 in1005.1 mb 0.00 in0.0 mm 0.00 in0.0 mm 0.00 in0.0 mm
04:43 AM 23.7°F-4.6°C 20.7°F-6.3°C 88% Calm Calm 2.0 mph3.2 kmh 29.68 in1005.1 mb 0.00 in0.0 mm 0.00 in0.0 mm 0.00 in0.0 mm
04:33 AM 23.4°F-4.8°C 20.3°F-6.5°C 88% Calm Calm -- 29.68 in1005.1 mb 0.00 in0.0 mm 0.00 in0.0 mm 0.00 in0.0 mm
04:23 AM 23.5°F-4.7°C 20.5°F-6.4°C 88% Calm Calm -- 29.68 in1005.1 mb 0.00 in0.0 mm 0.00 in0.0 mm 0.00 in0.0 mm
04:13 AM 23.7°F-4.6°C 20.7°F-6.3°C 88% Calm Calm -- 29.68 in1005.1 mb 0.00 in0.0 mm 0.00 in0.0 mm 0.00 in0.0 mm
04:03 AM 23.9°F-4.5°C 21.2°F-6.0°C 89% Calm Calm -- 29.68 in1005.1 mb 0.00 in0.0 mm 0.00 in0.0 mm 0.00 in0.0 mm
03:53 AM 23.9°F-4.5°C 20.8°F-6.2°C 88% Calm Calm -- 29.67 in1004.7 mb 0.00 in0.0 mm 0.00 in0.0 mm 0.00 in0.0 mm
03:43 AM 24.3°F-4.3°C 21.2°F-6.0°C 88% Calm Calm 0.9 mph1.4 kmh 29.67 in1004.7 mb 0.00 in0.0 mm 0.00 in0.0 mm 0.00 in0.0 mm
03:33 AM 24.4°F-4.2°C 21.7°F-5.7°C 89% Calm Calm -- 29.67 in1004.7 mb 0.00 in0.0 mm 0.00 in0.0 mm 0.00 in0.0 mm
03:23 AM 24.4°F-4.2°C 21.7°F-5.7°C 89% Calm Calm -- 29.67 in1004.7 mb 0.00 in0.0 mm 0.00 in0.0 mm 0.00 in0.0 mm
03:13 AM 24.4°F-4.2°C 21.7°F-5.7°C 89% Calm Calm 0.9 mph1.4 kmh 29.67 in1004.7 mb 0.00 in0.0 mm 0.00 in0.0 mm 0.00 in0.0 mm
03:03 AM 24.8°F-4.0°C 22.1°F-5.5°C 89% Calm Calm -- 29.67 in1004.7 mb 0.00 in0.0 mm 0.00 in0.0 mm 0.00 in0.0 mm
02:53 AM 25.2°F-3.8°C 22.5°F-5.3°C 89% Calm Calm -- 29.67 in1004.7 mb 0.00 in0.0 mm 0.00 in0.0 mm 0.00 in0.0 mm
02:43 AM 25.5°F-3.6°C 22.8°F-5.1°C 89% Calm Calm 0.9 mph1.4 kmh 29.67 in1004.7 mb 0.00 in0.0 mm 0.00 in0.0 mm 0.00 in0.0 mm
02:33 AM 25.7°F-3.5°C 23.2°F-4.9°C 90% Calm Calm 2.0 mph3.2 kmh 29.67 in1004.7 mb 0.00 in0.0 mm 0.00 in0.0 mm 0.00 in0.0 mm
02:23 AM 25.5°F-3.6°C 23.2°F-4.9°C 91% Calm Calm 2.0 mph3.2 kmh 29.68 in1005.1 mb 0.00 in0.0 mm 0.00 in0.0 mm 0.00 in0.0 mm
02:13 AM 25.9°F-3.4°C 23.9°F-4.5°C 92% Calm Calm 0.9 mph1.4 kmh 29.67 in1004.7 mb 0.00 in0.0 mm 0.00 in0.0 mm 0.00 in0.0 mm
02:03 AM 25.9°F-3.4°C 23.9°F-4.5°C 92% Calm Calm -- 29.67 in1004.7 mb 0.00 in0.0 mm 0.00 in0.0 mm 0.00 in0.0 mm
01:53 AM 26.2°F-3.2°C 24.3°F-4.3°C 92% Calm Calm -- 29.67 in1004.7 mb 0.00 in0.0 mm 0.00 in0.0 mm 0.00 in0.0 mm
01:43 AM 26.6°F-3.0°C 24.8°F-4.0°C 93% Calm Calm 2.0 mph3.2 kmh 29.67 in1004.7 mb 0.00 in0.0 mm 0.00 in0.0 mm 0.00 in0.0 mm
01:33 AM 27.0°F-2.8°C 25.5°F-3.6°C 94% Calm Calm 2.0 mph3.2 kmh 29.67 in1004.7 mb 0.00 in0.0 mm 0.00 in0.0 mm 0.00 in0.0 mm
01:23 AM 27.0°F-2.8°C 25.5°F-3.6°C 94% Calm Calm 1.0 mph1.6 kmh 29.67 in1004.7 mb 0.00 in0.0 mm 0.00 in0.0 mm 0.00 in0.0 mm
01:13 AM 27.3°F-2.6°C 26.1°F-3.3°C 95% Calm Calm 0.9 mph1.4 kmh 29.67 in1004.7 mb 0.00 in0.0 mm 0.00 in0.0 mm 0.00 in0.0 mm
01:03 AM 27.7°F-2.4°C 26.4°F-3.1°C 95% Calm Calm 0.9 mph1.4 kmh 29.67 in1004.7 mb 0.00 in0.0 mm 0.00 in0.0 mm 0.00 in0.0 mm
12:53 AM 27.9°F-2.3°C 26.6°F-3.0°C 95% Calm Calm 0.9 mph1.4 kmh 29.67 in1004.7 mb 0.00 in0.0 mm 0.00 in0.0 mm 0.00 in0.0 mm
12:43 AM 28.2°F-2.1°C 27.0°F-2.8°C 95% Calm Calm 0.9 mph1.4 kmh 29.67 in1004.7 mb 0.00 in0.0 mm 0.00 in0.0 mm 0.00 in0.0 mm
12:33 AM 28.6°F-1.9°C 27.3°F-2.6°C 95% Calm Calm 0.9 mph1.4 kmh 29.67 in1004.7 mb 0.00 in0.0 mm 0.00 in0.0 mm 0.00 in0.0 mm
12:23 AM 28.9°F-1.7°C 27.7°F-2.4°C 95% Calm Calm 0.9 mph1.4 kmh 29.67 in1004.7 mb 0.00 in0.0 mm 0.00 in0.0 mm 0.00 in0.0 mm
12:13 AM 29.1°F-1.6°C 28.0°F-2.2°C 96% Calm Calm 2.0 mph3.2 kmh 29.67 in1004.7 mb 0.00 in0.0 mm 0.00 in0.0 mm 0.00 in0.0 mm
12:03 AM 29.5°F-1.4°C 28.4°F-2.0°C 96% Calm Calm 1.0 mph1.6 kmh 29.67 in1004.7 mb 0.00 in0.0 mm 0.00 in0.0 mm 0.00 in0.0 mm